Time;durP1;ratioP1;P1;durP2;ratioP2;P2;SDS_P1;SDS_P2;PMS_P1;PMS_P2;Temp;Humidity;BMP_temperature;BMP_pressure;BME280_temperature;BME280_humidity;BME280_pressure;Samples;Min_cycle;Max_cycle;Signal;HPM_P1;HPM_P2
2023/07/24 00:00:10;;;;;;;6.05;2.40;;;;;;;19.84;100.00;99598.69;8373377;28;20040;-60
2023/07/24 00:04:10;;;;;;;3.65;2.60;;;;;;;19.70;100.00;99594.34;8363141;28;20276;-61
2023/07/24 00:08:11;;;;;;;4.57;2.83;;;;;;;19.54;100.00;99592.16;8364417;28;20037;-61
2023/07/24 00:12:11;;;;;;;5.57;2.80;;;;;;;19.39;100.00;99590.53;8363508;28;20037;-61
2023/07/24 00:16:12;;;;;;;6.40;3.45;;;;;;;19.40;100.00;99592.22;8349407;28;20430;-61
2023/07/24 00:20:12;;;;;;;10.73;3.35;;;;;;;19.41;100.00;99593.91;8349492;28;20044;-61
2023/07/24 00:24:12;;;;;;;4.95;3.22;;;;;;;19.41;100.00;99580.22;8351859;28;20041;-61
2023/07/24 00:28:13;;;;;;;6.97;2.70;;;;;;;19.43;100.00;99571.75;8345742;28;20033;-61
2023/07/24 00:32:13;;;;;;;4.28;3.05;;;;;;;19.45;100.00;99577.84;8336191;28;20523;-61
2023/07/24 00:36:14;;;;;;;7.05;2.95;;;;;;;19.48;100.00;99577.41;8339855;28;20037;-61
2023/07/24 00:40:14;;;;;;;10.70;3.25;;;;;;;19.54;100.00;99570.22;8342359;28;20411;-60
2023/07/24 00:44:15;;;;;;;10.43;3.20;;;;;;;19.56;100.00;99563.44;8342960;28;20048;-61
2023/07/24 00:48:16;;;;;;;6.07;2.75;;;;;;;19.49;100.00;99557.19;8369716;28;20037;-61
2023/07/24 00:52:16;;;;;;;4.82;2.90;;;;;;;19.51;100.00;99559.69;8358984;28;20507;-61
2023/07/24 00:56:18;;;;;;;4.35;2.60;;;;;;;19.55;100.00;99555.44;8357383;27;20056;-61
2023/07/24 01:00:19;;;;;;;5.78;2.85;;;;;;;19.46;100.00;99541.16;8359071;28;20041;-61
2023/07/24 01:04:22;;;;;;;9.15;3.30;;;;;;;19.33;100.00;99538.47;8354017;28;20503;-61
2023/07/24 01:08:23;;;;;;;3.50;2.45;;;;;;;19.33;100.00;99531.13;8357852;28;20120;-61
2023/07/24 01:12:35;;;;;;;6.65;2.83;;;;;;;19.48;100.00;99532.72;8364072;28;20746;-61
2023/07/24 01:16:37;;;;;;;7.65;3.40;;;;;;;19.56;100.00;99524.19;8354018;28;20044;-61
2023/07/24 01:20:43;;;;;;;5.82;2.42;;;;;;;19.52;100.00;99513.69;8358474;28;20037;-61
2023/07/24 01:25:00;;;;;;;8.30;3.13;;;;;;;19.31;100.00;99500.34;8359188;28;20052;-60
2023/07/24 01:29:01;;;;;;;10.93;3.22;;;;;;;19.18;100.00;99494.06;8357230;28;20045;-60
2023/07/24 01:33:02;;;;;;;4.78;2.85;;;;;;;19.15;100.00;99478.06;8356733;28;20040;-60
2023/07/24 01:37:03;;;;;;;6.70;3.45;;;;;;;19.09;100.00;99490.75;8380032;28;20032;-61
2023/07/24 01:41:04;;;;;;;14.75;4.65;;;;;;;19.06;100.00;99491.19;8354977;28;20043;-61
2023/07/24 01:45:05;;;;;;;8.82;4.10;;;;;;;19.02;100.00;99484.47;8355699;28;20043;-61
2023/07/24 01:49:05;;;;;;;9.50;4.03;;;;;;;19.06;100.00;99490.38;8358045;28;20041;-61
2023/07/24 01:53:06;;;;;;;9.20;3.47;;;;;;;19.18;100.00;99494.91;8386521;28;20075;-60
2023/07/24 01:57:06;;;;;;;10.10;4.35;;;;;;;19.31;100.00;99489.38;8358155;28;20036;-60
2023/07/24 02:01:07;;;;;;;8.05;3.50;;;;;;;19.49;100.00;99485.88;8355879;28;20148;-60
2023/07/24 02:05:08;;;;;;;7.65;3.22;;;;;;;19.63;100.00;99475.63;8358001;28;20619;-60
2023/07/24 02:09:10;;;;;;;10.68;3.50;;;;;;;19.74;100.00;99461.19;8356328;28;20115;-60
2023/07/24 02:13:10;;;;;;;5.97;3.80;;;;;;;19.60;100.00;99459.66;8355681;28;20584;-60
2023/07/24 02:17:12;;;;;;;9.25;3.50;;;;;;;19.40;100.00;99460.63;8353603;28;20036;-60
2023/07/24 02:21:12;;;;;;;14.15;3.72;;;;;;;19.38;100.00;99468.25;8357377;28;20038;-60
2023/07/24 02:25:12;;;;;;;7.47;3.50;;;;;;;19.33;100.00;99459.84;8357316;28;20045;-61
2023/07/24 02:29:13;;;;;;;9.00;4.05;;;;;;;19.27;100.00;99455.25;8356365;28;20040;-61
2023/07/24 02:33:14;;;;;;;11.55;4.00;;;;;;;19.33;100.00;99451.63;8351829;28;20033;-61
2023/07/24 02:37:15;;;;;;;6.22;3.63;;;;;;;19.28;100.00;99435.00;8356259;28;20037;-65
2023/07/24 02:41:16;;;;;;;7.25;3.38;;;;;;;19.27;100.00;99416.88;8351020;28;20585;-64
2023/07/24 02:45:16;;;;;;;5.03;3.10;;;;;;;19.28;100.00;99407.59;8357651;28;20045;-65
2023/07/24 02:49:17;;;;;;;6.20;3.17;;;;;;;19.29;100.00;99413.91;8363254;28;20120;-65
2023/07/24 02:53:17;;;;;;;10.57;3.85;;;;;;;19.32;100.00;99418.94;8365959;28;20124;-61
2023/07/24 02:57:18;;;;;;;9.43;3.47;;;;;;;19.30;100.00;99421.91;8363250;28;20030;-61
2023/07/24 03:01:18;;;;;;;6.88;3.45;;;;;;;19.30;100.00;99410.97;8362851;28;20048;-61
2023/07/24 03:05:19;;;;;;;7.53;3.75;;;;;;;19.28;100.00;99418.56;8361136;28;20033;-61
2023/07/24 03:09:19;;;;;;;10.23;3.63;;;;;;;19.27;100.00;99408.66;8357886;28;20525;-61
2023/07/24 03:13:20;;;;;;;6.03;4.38;;;;;;;19.30;100.00;99410.97;8366361;28;20044;-60
2023/07/24 03:17:22;;;;;;;12.65;4.50;;;;;;;19.21;100.00;99404.03;8358088;28;20166;-60
2023/07/24 03:21:23;;;;;;;9.30;3.95;;;;;;;19.07;100.00;99405.22;8368553;28;20137;-61
2023/07/24 03:25:23;;;;;;;11.75;5.00;;;;;;;18.93;100.00;99409.09;8367130;28;20037;-61
2023/07/24 03:29:24;;;;;;;10.05;4.57;;;;;;;18.89;100.00;99418.81;8361182;28;20124;-60
2023/07/24 03:33:24;;;;;;;8.68;4.13;;;;;;;18.97;100.00;99420.47;8361011;28;20033;-61
2023/07/24 03:37:25;;;;;;;8.73;4.13;;;;;;;18.90;100.00;99425.97;8361102;28;20576;-61
2023/07/24 03:41:25;;;;;;;12.55;3.85;;;;;;;18.85;100.00;99428.53;8361130;28;20041;-60
2023/07/24 03:45:29;;;;;;;13.20;4.30;;;;;;;18.78;100.00;99414.03;8360375;28;20068;-61
2023/07/24 03:49:29;;;;;;;7.25;4.20;;;;;;;18.79;100.00;99407.50;8360501;28;20041;-61
2023/07/24 03:53:30;;;;;;;9.20;4.00;;;;;;;18.77;100.00;99393.19;8360545;28;20103;-61
2023/07/24 03:57:30;;;;;;;12.30;4.05;;;;;;;18.70;100.00;99392.38;8361392;28;20400;-60
2023/07/24 04:01:30;;;;;;;8.27;3.67;;;;;;;18.69;100.00;99387.97;8358943;28;20132;-60
2023/07/24 04:05:31;;;;;;;12.65;4.63;;;;;;;18.66;100.00;99385.69;8360167;28;20041;-61
2023/07/24 04:09:32;;;;;;;7.50;4.05;;;;;;;18.74;100.00;99393.63;8360985;28;20099;-61
2023/07/24 04:13:32;;;;;;;6.47;3.95;;;;;;;18.81;100.00;99388.94;8363974;28;20455;-60
2023/07/24 04:17:33;;;;;;;8.80;3.47;;;;;;;18.99;100.00;99375.34;8359325;28;20077;-61
2023/07/24 04:21:33;;;;;;;8.85;4.07;;;;;;;19.14;100.00;99383.22;8359359;28;20041;-60
2023/07/24 04:25:34;;;;;;;8.38;4.13;;;;;;;19.28;100.00;99380.19;8362212;28;20037;-61
2023/07/24 04:29:34;;;;;;;7.45;4.22;;;;;;;19.37;100.00;99381.56;8362499;28;20044;-60
2023/07/24 04:33:35;;;;;;;7.40;4.07;;;;;;;19.45;100.00;99386.78;8358201;28;21457;-60
2023/07/24 04:37:35;;;;;;;6.95;3.65;;;;;;;19.59;100.00;99389.41;8359245;28;20041;-60
2023/07/24 04:41:36;;;;;;;10.57;3.50;;;;;;;19.63;100.00;99390.63;8359198;28;20037;-60
2023/07/24 04:45:36;;;;;;;9.32;3.47;;;;;;;19.65;100.00;99413.19;8357961;28;20175;-60
2023/07/24 04:49:37;;;;;;;6.03;3.80;;;;;;;19.68;100.00;99390.78;8355218;28;20469;-61
2023/07/24 04:53:37;;;;;;;5.07;3.33;;;;;;;19.74;100.00;99406.34;8359084;28;20037;-60
2023/07/24 04:57:37;;;;;;;8.23;3.33;;;;;;;19.97;100.00;99415.56;8358456;28;20462;-61
2023/07/24 05:01:38;;;;;;;6.40;3.42;;;;;;;20.31;100.00;99414.19;8354188;28;20034;-61
2023/07/24 05:05:38;;;;;;;6.70;3.65;;;;;;;20.58;100.00;99423.72;8356971;28;20488;-61
2023/07/24 05:09:39;;;;;;;7.45;3.42;;;;;;;20.61;100.00;99431.50;8354371;28;20557;-62
2023/07/24 05:13:39;;;;;;;9.18;3.80;;;;;;;20.66;100.00;99429.75;8356453;28;20427;-60
2023/07/24 05:17:40;;;;;;;9.65;3.80;;;;;;;20.62;100.00;99435.97;8353476;28;20040;-61
2023/07/24 05:21:40;;;;;;;7.28;2.78;;;;;;;20.67;100.00;99436.09;8354812;28;20041;-61
2023/07/24 05:25:41;;;;;;;7.88;3.83;;;;;;;20.91;100.00;99432.38;8354475;28;20095;-61
2023/07/24 05:29:41;;;;;;;9.00;3.63;;;;;;;20.97;100.00;99453.44;8356776;28;20087;-61
2023/07/24 05:33:42;;;;;;;7.20;4.10;;;;;;;20.99;100.00;99437.56;8354102;28;20040;-61
2023/07/24 05:37:42;;;;;;;9.38;4.03;;;;;;;21.05;100.00;99455.88;8357853;28;20041;-61
2023/07/24 05:41:43;;;;;;;11.20;4.07;;;;;;;21.24;99.61;99444.59;8357204;28;20170;-61
2023/07/24 05:45:43;;;;;;;16.77;5.32;;;;;;;21.43;100.00;99453.59;8349450;28;20289;-61
2023/07/24 05:49:43;;;;;;;15.77;4.40;;;;;;;21.61;96.49;99461.75;8356032;28;20065;-61
2023/07/24 05:53:44;;;;;;;8.80;3.78;;;;;;;21.76;96.10;99453.06;8356064;28;20314;-61
2023/07/24 05:57:44;;;;;;;7.68;3.90;;;;;;;22.00;94.24;99455.59;8357581;28;20141;-61
2023/07/24 06:01:45;;;;;;;5.20;2.53;;;;;;;22.20;91.83;99460.72;8352600;28;20090;-61
2023/07/24 06:05:45;;;;;;;4.72;2.25;;;;;;;22.06;91.70;99473.91;8356820;28;20049;-61
2023/07/24 06:09:45;;;;;;;8.63;4.75;;;;;;;21.95;91.20;99477.47;8355038;28;20060;-61
2023/07/24 06:13:46;;;;;;;4.18;2.25;;;;;;;21.90;92.28;99477.38;8354427;28;20121;-61
2023/07/24 06:17:46;;;;;;;7.45;2.60;;;;;;;21.79;91.70;99472.69;8354307;28;20517;-61
2023/07/24 06:21:47;;;;;;;8.80;3.55;;;;;;;21.75;92.67;99468.75;8354482;28;20041;-61
2023/07/24 06:25:47;;;;;;;5.28;3.03;;;;;;;21.63;91.25;99473.38;8356667;28;20132;-61
2023/07/24 06:29:48;;;;;;;4.30;2.70;;;;;;;21.52;89.95;99463.16;8351806;28;20552;-61
2023/07/24 06:33:48;;;;;;;4.05;2.40;;;;;;;21.58;90.92;99464.13;8352335;28;20049;-60
2023/07/24 06:37:49;;;;;;;36.50;5.80;;;;;;;21.52;91.36;99468.66;8354473;28;20094;-61
2023/07/24 06:41:52;;;;;;;5.47;2.58;;;;;;;21.50;90.98;99465.31;8356059;28;20041;-61
2023/07/24 06:45:52;;;;;;;6.47;2.63;;;;;;;21.50;89.96;99459.81;8352377;28;20411;-61
2023/07/24 06:49:53;;;;;;;7.53;2.30;;;;;;;21.61;89.55;99459.00;8351611;28;20125;-61
2023/07/24 06:53:53;;;;;;;9.98;2.35;;;;;;;21.72;88.54;99460.94;8354971;28;20040;-61
2023/07/24 06:57:54;;;;;;;5.40;2.38;;;;;;;21.84;86.42;99447.22;8356578;28;20033;-61
2023/07/24 07:01:54;;;;;;;3.40;2.30;;;;;;;21.84;84.87;99445.31;8353052;28;20045;-61
2023/07/24 07:05:59;;;;;;;5.22;2.40;;;;;;;21.80;86.16;99449.59;8356224;28;20160;-61
2023/07/24 07:09:59;;;;;;;7.82;2.13;;;;;;;21.81;86.35;99458.69;8354808;28;20037;-61
2023/07/24 07:14:00;;;;;;;5.25;2.42;;;;;;;21.72;87.00;99447.19;8356881;28;20136;-61
2023/07/24 07:18:00;;;;;;;5.50;2.38;;;;;;;21.72;87.73;99452.69;8348621;28;20146;-61
2023/07/24 07:22:01;;;;;;;23.15;3.78;;;;;;;21.76;88.80;99444.81;8355044;28;20114;-61
2023/07/24 07:26:02;;;;;;;3.85;2.45;;;;;;;21.91;87.87;99445.16;8355682;28;20040;-60
2023/07/24 07:30:03;;;;;;;6.40;2.20;;;;;;;22.11;87.25;99440.97;8355177;28;20048;-62
2023/07/24 07:34:04;;;;;;;6.28;2.80;;;;;;;22.39;86.73;99427.28;8359253;28;20047;-60
2023/07/24 07:38:04;;;;;;;3.70;2.15;;;;;;;22.49;85.36;99429.41;8360835;28;20518;-61
2023/07/24 07:42:05;;;;;;;4.38;2.70;;;;;;;22.52;84.91;99427.03;8360103;28;20090;-61
2023/07/24 07:46:05;;;;;;;8.27;3.13;;;;;;;22.51;85.31;99419.84;8362246;28;20056;-60
2023/07/24 07:50:06;;;;;;;4.78;2.88;;;;;;;22.54;86.20;99408.34;8361587;28;20045;-67
2023/07/24 07:54:06;;;;;;;8.35;2.78;;;;;;;22.56;83.06;99400.66;8362800;28;20032;-67
2023/07/24 07:58:07;;;;;;;4.80;2.53;;;;;;;22.90;82.30;99409.84;8360685;27;20044;-63
2023/07/24 08:02:08;;;;;;;29.00;4.10;;;;;;;22.95;79.54;99421.84;8354858;28;20519;-63
2023/07/24 08:06:08;;;;;;;7.75;2.35;;;;;;;22.71;81.54;99431.28;8356190;28;20048;-63
2023/07/24 08:10:09;;;;;;;9.07;2.80;;;;;;;22.59;81.37;99427.72;8360660;28;20047;-63
2023/07/24 08:14:09;;;;;;;4.72;2.20;;;;;;;22.82;80.61;99416.63;8358465;28;20063;-61
2023/07/24 08:18:10;;;;;;;5.00;2.40;;;;;;;23.01;79.40;99423.63;8355742;28;20090;-61
2023/07/24 08:22:10;;;;;;;5.80;2.35;;;;;;;23.12;78.66;99400.63;8358458;28;20040;-60
2023/07/24 08:26:11;;;;;;;8.88;3.08;;;;;;;23.63;76.04;99396.84;8356701;28;20456;-61
2023/07/24 08:30:11;;;;;;;26.33;7.82;;;;;;;24.33;74.23;99388.75;8356632;28;20151;-60
2023/07/24 08:34:12;;;;;;;3.53;1.90;;;;;;;24.52;71.30;99393.72;8356027;28;20032;-61
2023/07/24 08:38:12;;;;;;;4.40;2.33;;;;;;;24.22;72.18;99381.47;8356615;28;20044;-61
2023/07/24 08:42:13;;;;;;;3.50;2.20;;;;;;;24.04;73.12;99379.84;8352221;28;20037;-61
2023/07/24 08:46:14;;;;;;;3.17;2.10;;;;;;;23.77;73.93;99378.84;8351121;28;20127;-61
2023/07/24 08:50:17;;;;;;;3.42;1.88;;;;;;;24.12;74.10;99381.34;8350494;28;20101;-61
2023/07/24 08:54:19;;;;;;;2.70;1.80;;;;;;;24.18;73.63;99399.66;8358840;28;20047;-61
2023/07/24 08:58:20;;;;;;;2.83;1.88;;;;;;;24.13;74.15;99388.50;8371509;28;20037;-61
2023/07/24 09:02:20;;;;;;;23.10;4.43;;;;;;;24.06;73.28;99390.63;8355596;28;20103;-61
2023/07/24 09:06:21;;;;;;;2.88;1.35;;;;;;;24.13;72.72;99396.81;8352971;28;20407;-60
2023/07/24 09:10:26;;;;;;;4.53;1.92;;;;;;;24.00;73.01;99394.41;8361443;28;20059;-61
2023/07/24 09:14:30;;;;;;;3.38;1.40;;;;;;;23.69;74.36;99400.53;8352596;28;20817;-61
2023/07/24 09:18:45;;;;;;;3.10;1.70;;;;;;;23.53;75.34;99384.81;8353393;28;20052;-61
2023/07/24 09:22:50;;;;;;;2.95;1.73;;;;;;;23.57;75.81;99370.25;8354228;28;20178;-61
2023/07/24 09:26:53;;;;;;;3.75;1.83;;;;;;;23.51;75.83;99359.41;8354538;28;20041;-61
2023/07/24 09:30:55;;;;;;;2.38;1.70;;;;;;;23.39;75.14;99362.22;8350206;28;20083;-61
2023/07/24 09:34:56;;;;;;;2.80;1.48;;;;;;;23.49;74.32;99339.50;8355000;28;20095;-61
2023/07/24 09:39:01;;;;;;;2.45;1.60;;;;;;;23.62;74.15;99333.63;8354160;28;20037;-61
2023/07/24 09:43:01;;;;;;;2.35;1.52;;;;;;;23.98;73.89;99328.41;8352641;28;20509;-61
2023/07/24 09:47:02;;;;;;;38.30;5.07;;;;;;;24.10;72.17;99306.16;8352035;28;20049;-61
2023/07/24 09:51:02;;;;;;;1.98;1.35;;;;;;;24.40;72.44;99314.81;8353111;28;20037;-61
2023/07/24 09:55:15;;;;;;;1.80;1.42;;;;;;;24.24;72.58;99311.03;8352551;28;20454;-61
2023/07/24 09:59:15;;;;;;;4.20;1.65;;;;;;;24.07;74.04;99306.69;8375395;28;20353;-61
2023/07/24 10:03:17;;;;;;;6.65;2.20;;;;;;;23.25;89.08;99310.41;8348619;28;20044;-61
2023/07/24 10:07:21;;;;;;;3.10;1.55;;;;;;;23.03;86.44;99296.53;8400537;28;20116;-61
2023/07/24 10:11:23;;;;;;;2.13;1.40;;;;;;;23.68;83.13;99293.97;8359981;28;20083;-61
2023/07/24 10:15:25;;;;;;;2.85;1.60;;;;;;;25.04;73.31;99283.44;8333748;28;20070;-61
2023/07/24 10:19:36;;;;;;;3.15;1.50;;;;;;;24.82;72.67;99274.38;8334798;28;20064;-61
2023/07/24 10:23:41;;;;;;;2.25;1.50;;;;;;;24.30;75.13;99276.84;8335966;28;20037;-61
2023/07/24 10:27:43;;;;;;;2.85;1.42;;;;;;;23.99;75.42;99268.47;8335677;28;20038;-62
2023/07/24 10:31:53;;;;;;;4.68;1.73;;;;;;;23.66;78.39;99263.06;8331201;28;20110;-61
2023/07/24 10:35:55;;;;;;;2.90;1.70;;;;;;;23.46;78.81;99262.75;8365706;28;20461;-61
2023/07/24 10:39:55;;;;;;;4.63;1.67;;;;;;;23.49;78.63;99267.75;8366144;28;20150;-62
2023/07/24 10:43:59;;;;;;;3.55;1.60;;;;;;;23.44;77.32;99253.88;8368822;28;20048;-61
2023/07/24 10:48:00;;;;;;;2.70;1.73;;;;;;;23.64;80.80;99238.47;8365171;28;20048;-61
2023/07/24 10:52:00;;;;;;;2.85;1.55;;;;;;;23.84;81.59;99232.34;8369691;28;20069;-61
2023/07/24 10:56:00;;;;;;;2.25;1.58;;;;;;;24.58;80.33;99223.25;8369409;28;20456;-61
2023/07/24 11:00:01;;;;;;;2.83;1.73;;;;;;;24.97;79.20;99199.81;8388473;28;20362;-61
2023/07/24 11:04:02;;;;;;;3.30;1.73;;;;;;;24.31;79.50;99197.56;8368228;28;20274;-61
2023/07/24 11:08:13;;;;;;;1.77;1.35;;;;;;;23.88;79.22;99189.34;8374159;28;20048;-61
2023/07/24 11:12:16;;;;;;;2.45;1.60;;;;;;;24.32;77.50;99191.78;8374329;28;20036;-61
2023/07/24 11:16:16;;;;;;;2.38;1.70;;;;;;;26.24;69.01;99151.19;8371150;28;20052;-61
2023/07/24 11:20:17;;;;;;;2.70;1.88;;;;;;;25.71;70.50;99162.63;8373386;28;20551;-61
2023/07/24 11:24:18;;;;;;;13.23;3.22;;;;;;;23.76;85.73;99279.72;8373436;28;20037;-61
2023/07/24 11:28:19;;;;;;;3.00;1.23;;;;;;;21.17;100.00;99245.09;8373435;28;20033;-61
2023/07/24 11:32:20;;;;;;;6.22;0.90;;;;;;;20.76;100.00;99291.84;8371949;28;20090;-62
2023/07/24 11:36:22;;;;;;;2.70;0.57;;;;;;;23.53;100.00;99268.91;8371310;28;20044;-62
2023/07/24 11:40:32;;;;;;;2.72;0.65;;;;;;;24.38;97.34;99273.63;8372500;28;20036;-62
2023/07/24 11:44:35;;;;;;;5.72;0.80;;;;;;;25.84;85.76;99245.22;8375146;28;20127;-62
2023/07/24 11:48:41;;;;;;;2.80;1.25;;;;;;;24.87;86.77;99255.06;8403025;28;20078;-63
2023/07/24 11:52:44;;;;;;;2.25;1.42;;;;;;;25.06;87.81;99264.63;8370872;28;20071;-62
2023/07/24 11:56:44;;;;;;;56.97;7.45;;;;;;;25.92;84.18;99269.63;8373610;28;20162;-62
2023/07/24 12:00:47;;;;;;;39.70;5.50;;;;;;;24.16;92.64;99302.38;8372637;28;20482;-62
2023/07/24 12:04:57;;;;;;;8.73;2.20;;;;;;;23.14;100.00;99304.72;8372419;28;20045;-62
2023/07/24 12:09:05;;;;;;;4.43;1.75;;;;;;;22.66;100.00;99312.69;8372800;28;20037;-62
2023/07/24 12:13:06;;;;;;;7.82;1.88;;;;;;;22.57;100.00;99291.31;8375442;28;20041;-61
2023/07/24 12:17:10;;;;;;;3.22;1.75;;;;;;;22.31;100.00;99287.19;8368492;28;20072;-62
2023/07/24 12:21:10;;;;;;;3.65;1.77;;;;;;;22.27;100.00;99263.16;8372003;28;20040;-63
2023/07/24 12:25:11;;;;;;;6.18;2.53;;;;;;;22.29;100.00;99267.31;8371065;28;20040;-63
2023/07/24 12:29:11;;;;;;;4.07;2.40;;;;;;;22.31;100.00;99254.16;8369890;28;20033;-63
2023/07/24 12:33:11;;;;;;;3.35;1.92;;;;;;;22.39;100.00;99240.00;8370602;28;20143;-62
2023/07/24 12:37:12;;;;;;;3.60;2.30;;;;;;;22.40;100.00;99252.66;8370829;28;20347;-62
2023/07/24 12:41:13;;;;;;;2.47;1.67;;;;;;;22.19;100.00;99267.13;8370584;28;20600;-62
2023/07/24 12:45:13;;;;;;;6.10;2.10;;;;;;;21.74;100.00;99265.38;8370678;28;20037;-62
2023/07/24 12:49:13;;;;;;;4.32;1.30;;;;;;;21.11;100.00;99257.84;8370444;28;20071;-61
2023/07/24 12:53:14;;;;;;;2.90;1.30;;;;;;;20.99;100.00;99248.81;8368559;28;20049;-61
2023/07/24 12:57:14;;;;;;;2.10;1.10;;;;;;;21.45;100.00;99245.19;8371481;28;20491;-61
2023/07/24 13:01:15;;;;;;;11.50;1.50;;;;;;;21.52;100.00;99256.03;8370847;28;20044;-61
2023/07/24 13:05:15;;;;;;;7.55;1.58;;;;;;;21.72;100.00;99243.56;8370671;28;20051;-61
2023/07/24 13:09:15;;;;;;;4.15;0.80;;;;;;;21.89;100.00;99244.50;8370140;28;20111;-61
2023/07/24 13:13:16;;;;;;;2.03;0.50;;;;;;;22.21;100.00;99242.09;8372644;28;20090;-61
2023/07/24 13:17:16;;;;;;;2.08;0.73;;;;;;;22.41;94.38;99231.44;8367334;28;20039;-61
2023/07/24 13:21:17;;;;;;;3.97;0.73;;;;;;;22.80;94.67;99225.84;8370044;28;20123;-62
2023/07/24 13:25:17;;;;;;;0.93;0.57;;;;;;;23.14;94.23;99232.16;8402298;28;20114;-61
2023/07/24 13:29:18;;;;;;;1.55;0.63;;;;;;;23.30;94.96;99238.78;8369648;28;20721;-62
2023/07/24 13:33:19;;;;;;;2.70;0.70;;;;;;;23.06;91.14;99241.69;8367869;28;20032;-61
2023/07/24 13:37:19;;;;;;;32.67;5.55;;;;;;;22.70;93.82;99250.50;8369175;28;20124;-61
2023/07/24 13:41:20;;;;;;;6.95;1.50;;;;;;;22.67;91.88;99245.50;8392490;28;20045;-61
2023/07/24 13:45:20;;;;;;;2.95;0.98;;;;;;;22.31;96.32;99240.38;8369130;28;20041;-61
2023/07/24 13:49:20;;;;;;;8.82;1.30;;;;;;;21.75;100.00;99243.13;8369791;28;20040;-61
2023/07/24 13:53:21;;;;;;;3.55;0.77;;;;;;;21.58;100.00;99253.16;8366396;28;20041;-61
2023/07/24 13:57:23;;;;;;;1.70;0.80;;;;;;;21.46;100.00;99279.84;8372665;28;20048;-62
2023/07/24 14:01:23;;;;;;;1.85;0.63;;;;;;;21.30;100.00;99286.06;8368159;28;20041;-61
2023/07/24 14:05:24;;;;;;;6.57;1.30;;;;;;;21.16;100.00;99277.22;8368107;28;20055;-62
2023/07/24 14:09:24;;;;;;;2.28;0.93;;;;;;;21.20;100.00;99281.16;8367517;28;20061;-61
2023/07/24 14:13:25;;;;;;;2.90;1.20;;;;;;;21.14;100.00;99273.88;8371506;28;20122;-62
2023/07/24 14:17:27;;;;;;;1.63;1.02;;;;;;;21.21;100.00;99279.25;8364548;28;20040;-62
2023/07/24 14:21:27;;;;;;;3.15;1.50;;;;;;;21.23;100.00;99268.88;8367597;28;20078;-62
2023/07/24 14:25:28;;;;;;;2.08;1.27;;;;;;;21.39;100.00;99262.66;8401291;28;20079;-61
2023/07/24 14:29:28;;;;;;;1.70;1.13;;;;;;;21.50;100.00;99264.53;8367841;28;20086;-62
2023/07/24 14:33:29;;;;;;;2.83;1.10;;;;;;;21.70;100.00;99262.22;8362891;28;20402;-62
2023/07/24 14:37:30;;;;;;;3.70;0.80;;;;;;;21.81;100.00;99264.16;8364156;28;20056;-61
2023/07/24 14:41:31;;;;;;;3.03;0.88;;;;;;;21.84;96.85;99284.84;8365067;28;20037;-62
2023/07/24 14:45:31;;;;;;;1.60;1.00;;;;;;;21.87;98.94;99271.44;8369169;28;20048;-63
2023/07/24 14:49:32;;;;;;;4.40;1.23;;;;;;;22.15;96.41;99257.69;8367127;28;20538;-63
2023/07/24 14:53:32;;;;;;;1.80;0.85;;;;;;;22.48;94.61;99259.69;8364992;28;20063;-63
2023/07/24 14:57:33;;;;;;;2.42;0.90;;;;;;;22.80;90.57;99264.44;8366451;28;20032;-63
2023/07/24 15:01:33;;;;;;;2.25;0.98;;;;;;;22.87;92.41;99267.00;8365016;28;20047;-63
2023/07/24 15:05:34;;;;;;;1.95;1.00;;;;;;;22.89;87.29;99262.09;8389157;28;20047;-63
2023/07/24 15:09:34;;;;;;;2.60;1.02;;;;;;;22.78;85.87;99263.84;8366541;28;20356;-63
2023/07/24 15:13:35;;;;;;;1.75;0.68;;;;;;;22.57;88.91;99259.06;8368805;28;20150;-64
2023/07/24 15:17:35;;;;;;;2.53;0.90;;;;;;;22.59;89.99;99262.41;8361596;28;20131;-64
2023/07/24 15:21:36;;;;;;;4.18;0.90;;;;;;;22.79;88.51;99267.44;8366166;28;20048;-64
2023/07/24 15:25:37;;;;;;;1.95;1.05;;;;;;;23.18;84.16;99264.50;8366538;28;20053;-64
2023/07/24 15:29:37;;;;;;;4.13;1.00;;;;;;;22.96;83.10;99280.16;8366595;28;20247;-64
2023/07/24 15:33:38;;;;;;;2.35;0.93;;;;;;;22.91;84.38;99282.00;8364391;28;20051;-64
2023/07/24 15:37:38;;;;;;;2.85;1.30;;;;;;;23.01;84.78;99288.50;8364831;28;20415;-64
2023/07/24 15:41:39;;;;;;;1.48;0.75;;;;;;;23.18;80.79;99294.84;8367556;28;20040;-64
2023/07/24 15:45:39;;;;;;;3.42;1.27;;;;;;;23.21;81.91;99305.38;8362298;28;20529;-64
2023/07/24 15:49:39;;;;;;;1.83;0.90;;;;;;;23.24;81.07;99308.75;8361438;28;20226;-64
2023/07/24 15:53:40;;;;;;;7.35;1.80;;;;;;;23.51;79.71;99315.25;8370286;28;20263;-64
2023/07/24 15:57:40;;;;;;;2.80;1.13;;;;;;;23.59;75.91;99317.56;8370752;28;20033;-64
2023/07/24 16:01:41;;;;;;;2.85;1.38;;;;;;;23.42;75.21;99311.25;8369916;28;20554;-64
2023/07/24 16:05:41;;;;;;;1.70;1.27;;;;;;;23.40;73.68;99321.69;8369864;28;20063;-64
2023/07/24 16:09:42;;;;;;;3.35;1.65;;;;;;;23.04;73.70;99321.09;8369244;28;20103;-63
2023/07/24 16:13:43;;;;;;;1.98;1.30;;;;;;;22.75;74.77;99322.22;8366966;28;20549;-63
2023/07/24 16:17:43;;;;;;;2.00;1.27;;;;;;;22.65;75.29;99327.56;8368096;28;20437;-64
2023/07/24 16:21:46;;;;;;;3.63;1.70;;;;;;;22.55;75.18;99327.38;8369409;28;20071;-63
2023/07/24 16:25:47;;;;;;;2.40;1.47;;;;;;;22.44;74.95;99330.13;8369696;28;20132;-63
2023/07/24 16:29:47;;;;;;;3.35;1.60;;;;;;;22.55;76.16;99338.41;8369736;28;20033;-63
2023/07/24 16:33:48;;;;;;;4.95;2.00;;;;;;;22.48;79.05;99343.16;8369625;28;20576;-63
2023/07/24 16:37:48;;;;;;;3.65;2.42;;;;;;;22.38;83.23;99342.16;8371512;28;20078;-63
2023/07/24 16:41:49;;;;;;;3.33;2.55;;;;;;;22.03;89.26;99355.16;8371721;28;20499;-63
2023/07/24 16:45:51;;;;;;;5.75;2.97;;;;;;;21.67;91.31;99361.75;8368684;28;20095;-63
2023/07/24 16:49:51;;;;;;;4.07;2.15;;;;;;;21.52;91.80;99353.16;8369865;28;20490;-63
2023/07/24 16:53:51;;;;;;;2.67;2.03;;;;;;;21.54;86.91;99350.16;8369425;28;20446;-63
2023/07/24 16:57:52;;;;;;;3.80;2.05;;;;;;;21.66;85.40;99360.09;8368226;28;20518;-63
2023/07/24 17:01:53;;;;;;;3.92;1.77;;;;;;;21.71;85.99;99373.13;8364720;28;20036;-63
2023/07/24 17:05:53;;;;;;;4.50;1.90;;;;;;;21.80;85.82;99393.75;8370207;28;20079;-63
2023/07/24 17:09:53;;;;;;;4.80;2.03;;;;;;;21.04;87.60;99382.72;8369718;28;20097;-63
2023/07/24 17:13:54;;;;;;;3.15;2.08;;;;;;;20.73;88.52;99405.78;8368839;28;20068;-63
2023/07/24 17:17:54;;;;;;;4.13;1.88;;;;;;;20.30;92.96;99405.09;8366734;28;20497;-62
2023/07/24 17:21:55;;;;;;;4.72;1.52;;;;;;;20.04;94.75;99426.50;8368460;28;20049;-62
2023/07/24 17:25:55;;;;;;;4.70;1.40;;;;;;;19.87;91.10;99428.13;8368871;28;20163;-62
2023/07/24 17:29:56;;;;;;;2.55;1.30;;;;;;;19.68;93.85;99448.38;8366166;28;20041;-62
2023/07/24 17:33:56;;;;;;;1.42;1.02;;;;;;;19.13;99.91;99461.84;8367129;28;20160;-63
2023/07/24 17:37:57;;;;;;;1.48;1.00;;;;;;;18.64;100.00;99459.00;8369478;28;20041;-62
2023/07/24 17:41:57;;;;;;;4.80;1.70;;;;;;;18.31;100.00;99469.19;8369587;28;20601;-62
2023/07/24 17:45:58;;;;;;;1.92;1.30;;;;;;;18.16;100.00;99449.47;8364914;28;20045;-61
2023/07/24 17:49:58;;;;;;;4.05;2.10;;;;;;;18.33;100.00;99460.78;8368320;28;20044;-62
2023/07/24 17:53:59;;;;;;;4.53;2.17;;;;;;;18.36;100.00;99458.44;8369152;28;20747;-61
2023/07/24 17:57:59;;;;;;;2.85;1.60;;;;;;;18.30;100.00;99458.47;8366981;28;20041;-61
2023/07/24 18:02:00;;;;;;;3.28;1.60;;;;;;;18.34;100.00;99457.81;8363896;28;20110;-61
2023/07/24 18:06:00;;;;;;;4.65;2.30;;;;;;;18.41;100.00;99455.94;8368107;28;20045;-61
2023/07/24 18:10:01;;;;;;;4.25;2.08;;;;;;;18.40;100.00;99464.34;8368203;28;20127;-62
2023/07/24 18:14:01;;;;;;;4.40;1.70;;;;;;;18.40;100.00;99467.09;8367973;28;20044;-62
2023/07/24 18:18:02;;;;;;;4.47;2.00;;;;;;;18.42;100.00;99465.00;8368199;28;20048;-61
2023/07/24 18:22:02;;;;;;;3.08;2.25;;;;;;;18.36;100.00;99452.97;8367572;28;20287;-62
2023/07/24 18:26:03;;;;;;;2.42;1.90;;;;;;;18.36;100.00;99454.88;8367908;28;20097;-62
2023/07/24 18:30:05;;;;;;;3.58;2.25;;;;;;;18.31;100.00;99455.53;8364288;28;20037;-61
2023/07/24 18:34:05;;;;;;;4.32;2.53;;;;;;;18.43;100.00;99472.97;8368117;28;20087;-61
2023/07/24 18:38:05;;;;;;;7.70;2.47;;;;;;;18.64;100.00;99464.47;8363745;28;20044;-61
2023/07/24 18:42:06;;;;;;;5.13;2.17;;;;;;;18.44;100.00;99480.13;8400017;28;20041;-61
2023/07/24 18:46:06;;;;;;;3.92;2.60;;;;;;;18.38;100.00;99486.47;8371146;28;20083;-61